sensor_id;sensor_type;location;lat;lon;timestamp;temperature;humidity
14555;DHT22;7364;50.870;4.722;2022-07-04T00:01:57;18.00;99.90
14555;DHT22;7364;50.870;4.722;2022-07-04T00:04:24;17.90;99.90
14555;DHT22;7364;50.870;4.722;2022-07-04T00:06:51;17.80;99.90
14555;DHT22;7364;50.870;4.722;2022-07-04T00:09:18;17.80;99.90
14555;DHT22;7364;50.870;4.722;2022-07-04T00:11:46;17.80;99.90
14555;DHT22;7364;50.870;4.722;2022-07-04T00:14:14;17.90;99.90
14555;DHT22;7364;50.870;4.722;2022-07-04T00:16:41;17.70;99.90
14555;DHT22;7364;50.870;4.722;2022-07-04T00:19:08;17.80;99.90
14555;DHT22;7364;50.870;4.722;2022-07-04T00:21:36;17.80;99.90
14555;DHT22;7364;50.870;4.722;2022-07-04T00:24:03;17.90;99.90
14555;DHT22;7364;50.870;4.722;2022-07-04T00:26:30;17.90;99.90
14555;DHT22;7364;50.870;4.722;2022-07-04T00:28:58;17.90;99.90
14555;DHT22;7364;50.870;4.722;2022-07-04T00:31:27;17.70;99.90
14555;DHT22;7364;50.870;4.722;2022-07-04T00:33:54;17.80;99.90
14555;DHT22;7364;50.870;4.722;2022-07-04T00:36:21;17.70;99.90
14555;DHT22;7364;50.870;4.722;2022-07-04T00:38:49;17.70;99.90
14555;DHT22;7364;50.870;4.722;2022-07-04T00:41:16;17.70;99.90
14555;DHT22;7364;50.870;4.722;2022-07-04T00:43:43;17.70;99.90
14555;DHT22;7364;50.870;4.722;2022-07-04T00:46:10;17.60;99.90
14555;DHT22;7364;50.870;4.722;2022-07-04T00:48:41;17.50;99.90
14555;DHT22;7364;50.870;4.722;2022-07-04T00:51:09;17.60;99.90
14555;DHT22;7364;50.870;4.722;2022-07-04T00:53:36;17.70;99.90
14555;DHT22;7364;50.870;4.722;2022-07-04T00:56:04;17.70;99.90
14555;DHT22;7364;50.870;4.722;2022-07-04T00:58:32;17.60;99.90
14555;DHT22;7364;50.870;4.722;2022-07-04T01:00:59;17.60;99.90
14555;DHT22;7364;50.870;4.722;2022-07-04T01:03:26;17.50;99.90
14555;DHT22;7364;50.870;4.722;2022-07-04T01:05:55;17.20;99.90
14555;DHT22;7364;50.870;4.722;2022-07-04T01:08:23;17.10;99.90
14555;DHT22;7364;50.870;4.722;2022-07-04T01:10:51;17.10;99.90
14555;DHT22;7364;50.870;4.722;2022-07-04T01:13:22;17.30;99.90
14555;DHT22;7364;50.870;4.722;2022-07-04T01:15:50;17.40;99.90
14555;DHT22;7364;50.870;4.722;2022-07-04T01:18:18;17.40;99.90
14555;DHT22;7364;50.870;4.722;2022-07-04T01:20:46;17.40;99.90
14555;DHT22;7364;50.870;4.722;2022-07-04T01:23:13;17.40;99.90
14555;DHT22;7364;50.870;4.722;2022-07-04T01:25:42;17.30;99.90
14555;DHT22;7364;50.870;4.722;2022-07-04T01:28:11;17.10;99.90
14555;DHT22;7364;50.870;4.722;2022-07-04T01:30:38;17.10;99.90
14555;DHT22;7364;50.870;4.722;2022-07-04T01:33:05;17.10;99.90
14555;DHT22;7364;50.870;4.722;2022-07-04T01:35:32;17.20;99.90
14555;DHT22;7364;50.870;4.722;2022-07-04T01:38:02;17.10;99.90
14555;DHT22;7364;50.870;4.722;2022-07-04T01:40:29;17.00;99.90
14555;DHT22;7364;50.870;4.722;2022-07-04T01:42:57;16.90;99.90
14555;DHT22;7364;50.870;4.722;2022-07-04T01:45:25;16.70;99.90
14555;DHT22;7364;50.870;4.722;2022-07-04T01:47:52;16.30;99.90
14555;DHT22;7364;50.870;4.722;2022-07-04T01:50:19;16.20;99.90
14555;DHT22;7364;50.870;4.722;2022-07-04T01:52:46;16.10;99.90
14555;DHT22;7364;50.870;4.722;2022-07-04T01:55:29;16.10;99.90
14555;DHT22;7364;50.870;4.722;2022-07-04T01:57:57;16.20;99.90
14555;DHT22;7364;50.870;4.722;2022-07-04T02:00:26;16.40;99.90
14555;DHT22;7364;50.870;4.722;2022-07-04T02:03:10;16.50;99.90
14555;DHT22;7364;50.870;4.722;2022-07-04T02:05:38;16.50;99.90
14555;DHT22;7364;50.870;4.722;2022-07-04T02:08:05;16.40;99.90
14555;DHT22;7364;50.870;4.722;2022-07-04T02:10:34;16.30;99.90
14555;DHT22;7364;50.870;4.722;2022-07-04T02:13:02;16.40;99.90
14555;DHT22;7364;50.870;4.722;2022-07-04T02:15:30;16.30;99.90
14555;DHT22;7364;50.870;4.722;2022-07-04T02:17:58;16.20;99.90
14555;DHT22;7364;50.870;4.722;2022-07-04T02:20:27;16.30;99.90
14555;DHT22;7364;50.870;4.722;2022-07-04T02:22:55;16.40;99.90
14555;DHT22;7364;50.870;4.722;2022-07-04T02:25:22;16.40;99.90
14555;DHT22;7364;50.870;4.722;2022-07-04T02:27:51;16.40;99.90
14555;DHT22;7364;50.870;4.722;2022-07-04T02:30:18;16.40;99.90
14555;DHT22;7364;50.870;4.722;2022-07-04T02:32:46;16.30;99.90
14555;DHT22;7364;50.870;4.722;2022-07-04T02:35:13;16.30;99.90
14555;DHT22;7364;50.870;4.722;2022-07-04T02:37:41;16.30;99.90
14555;DHT22;7364;50.870;4.722;2022-07-04T02:40:08;16.30;99.90
14555;DHT22;7364;50.870;4.722;2022-07-04T02:42:36;16.20;99.90
14555;DHT22;7364;50.870;4.722;2022-07-04T02:45:06;16.10;99.90
14555;DHT22;7364;50.870;4.722;2022-07-04T02:47:34;16.10;99.90
14555;DHT22;7364;50.870;4.722;2022-07-04T02:50:03;16.10;99.90
14555;DHT22;7364;50.870;4.722;2022-07-04T02:52:31;16.10;99.90
14555;DHT22;7364;50.870;4.722;2022-07-04T02:54:58;16.10;99.90
14555;DHT22;7364;50.870;4.722;2022-07-04T02:57:26;16.10;99.90
14555;DHT22;7364;50.870;4.722;2022-07-04T02:59:56;15.90;99.90
14555;DHT22;7364;50.870;4.722;2022-07-04T03:02:24;15.90;99.90
14555;DHT22;7364;50.870;4.722;2022-07-04T03:04:52;15.80;99.90
14555;DHT22;7364;50.870;4.722;2022-07-04T03:07:19;15.80;99.90
14555;DHT22;7364;50.870;4.722;2022-07-04T03:09:46;15.80;99.90
14555;DHT22;7364;50.870;4.722;2022-07-04T03:12:13;15.90;99.90
14555;DHT22;7364;50.870;4.722;2022-07-04T03:14:40;16.00;99.90
14555;DHT22;7364;50.870;4.722;2022-07-04T03:17:08;16.00;99.90
14555;DHT22;7364;50.870;4.722;2022-07-04T03:19:36;15.90;99.90
14555;DHT22;7364;50.870;4.722;2022-07-04T03:22:04;15.80;99.90
14555;DHT22;7364;50.870;4.722;2022-07-04T03:24:31;15.90;99.90
14555;DHT22;7364;50.870;4.722;2022-07-04T03:26:58;15.80;99.90
14555;DHT22;7364;50.870;4.722;2022-07-04T03:29:25;15.90;99.90
14555;DHT22;7364;50.870;4.722;2022-07-04T03:31:52;15.80;99.90
14555;DHT22;7364;50.870;4.722;2022-07-04T03:34:20;15.80;99.90
14555;DHT22;7364;50.870;4.722;2022-07-04T03:36:48;15.70;99.90
14555;DHT22;7364;50.870;4.722;2022-07-04T03:39:16;15.50;99.90
14555;DHT22;7364;50.870;4.722;2022-07-04T03:41:43;15.60;99.90
14555;DHT22;7364;50.870;4.722;2022-07-04T03:44:10;15.60;99.90
14555;DHT22;7364;50.870;4.722;2022-07-04T03:46:37;15.60;99.90
14555;DHT22;7364;50.870;4.722;2022-07-04T03:49:04;15.60;99.90
14555;DHT22;7364;50.870;4.722;2022-07-04T03:51:31;15.60;99.90
14555;DHT22;7364;50.870;4.722;2022-07-04T03:54:04;15.70;99.90
14555;DHT22;7364;50.870;4.722;2022-07-04T03:56:31;15.50;99.90
14555;DHT22;7364;50.870;4.722;2022-07-04T03:58:58;15.40;99.90
14555;DHT22;7364;50.870;4.722;2022-07-04T04:01:27;15.20;99.90
14555;DHT22;7364;50.870;4.722;2022-07-04T04:03:55;15.20;99.90
14555;DHT22;7364;50.870;4.722;2022-07-04T04:06:39;15.40;99.90
14555;DHT22;7364;50.870;4.722;2022-07-04T04:09:08;15.50;99.90
14555;DHT22;7364;50.870;4.722;2022-07-04T04:11:42;15.60;99.90
14555;DHT22;7364;50.870;4.722;2022-07-04T04:14:09;15.60;99.90
14555;DHT22;7364;50.870;4.722;2022-07-04T04:16:37;15.60;99.90
14555;DHT22;7364;50.870;4.722;2022-07-04T04:19:04;15.70;99.90
14555;DHT22;7364;50.870;4.722;2022-07-04T04:21:31;15.80;99.90
14555;DHT22;7364;50.870;4.722;2022-07-04T04:23:58;15.80;99.90
14555;DHT22;7364;50.870;4.722;2022-07-04T04:26:27;15.80;99.90
14555;DHT22;7364;50.870;4.722;2022-07-04T04:28:54;15.80;99.90
14555;DHT22;7364;50.870;4.722;2022-07-04T04:31:22;15.90;99.90
14555;DHT22;7364;50.870;4.722;2022-07-04T04:33:49;16.00;99.90
14555;DHT22;7364;50.870;4.722;2022-07-04T04:36:16;16.00;99.90
14555;DHT22;7364;50.870;4.722;2022-07-04T04:38:43;16.00;99.90
14555;DHT22;7364;50.870;4.722;2022-07-04T04:41:11;16.00;99.90
14555;DHT22;7364;50.870;4.722;2022-07-04T04:43:39;16.00;99.90
14555;DHT22;7364;50.870;4.722;2022-07-04T04:46:06;16.00;99.90
14555;DHT22;7364;50.870;4.722;2022-07-04T04:48:34;15.90;99.90
14555;DHT22;7364;50.870;4.722;2022-07-04T04:51:01;16.00;99.90
14555;DHT22;7364;50.870;4.722;2022-07-04T04:53:29;15.90;99.90
14555;DHT22;7364;50.870;4.722;2022-07-04T04:55:56;15.90;99.90
14555;DHT22;7364;50.870;4.722;2022-07-04T04:58:24;15.90;99.90
14555;DHT22;7364;50.870;4.722;2022-07-04T05:00:53;15.90;99.90
14555;DHT22;7364;50.870;4.722;2022-07-04T05:03:20;15.70;99.90
14555;DHT22;7364;50.870;4.722;2022-07-04T05:05:47;15.60;99.90
14555;DHT22;7364;50.870;4.722;2022-07-04T05:08:14;15.70;99.90
14555;DHT22;7364;50.870;4.722;2022-07-04T05:10:42;15.80;99.90
14555;DHT22;7364;50.870;4.722;2022-07-04T05:13:09;15.90;99.90
14555;DHT22;7364;50.870;4.722;2022-07-04T05:15:36;15.80;99.90
14555;DHT22;7364;50.870;4.722;2022-07-04T05:18:05;15.60;99.90
14555;DHT22;7364;50.870;4.722;2022-07-04T05:20:32;15.60;99.90
14555;DHT22;7364;50.870;4.722;2022-07-04T05:22:59;15.50;99.90
14555;DHT22;7364;50.870;4.722;2022-07-04T05:25:26;15.40;99.90
14555;DHT22;7364;50.870;4.722;2022-07-04T05:27:54;15.40;99.90
14555;DHT22;7364;50.870;4.722;2022-07-04T05:30:21;15.50;99.90
14555;DHT22;7364;50.870;4.722;2022-07-04T05:32:48;15.70;99.90
14555;DHT22;7364;50.870;4.722;2022-07-04T05:35:16;15.60;99.90
14555;DHT22;7364;50.870;4.722;2022-07-04T05:37:44;15.60;99.90
14555;DHT22;7364;50.870;4.722;2022-07-04T05:40:12;15.90;99.90
14555;DHT22;7364;50.870;4.722;2022-07-04T05:42:39;15.90;99.90
14555;DHT22;7364;50.870;4.722;2022-07-04T05:45:06;16.10;99.90
14555;DHT22;7364;50.870;4.722;2022-07-04T05:47:34;16.10;99.90
14555;DHT22;7364;50.870;4.722;2022-07-04T05:50:02;16.30;99.90
14555;DHT22;7364;50.870;4.722;2022-07-04T05:52:30;16.50;99.90
14555;DHT22;7364;50.870;4.722;2022-07-04T05:54:58;16.70;99.90
14555;DHT22;7364;50.870;4.722;2022-07-04T05:57:25;16.80;99.90
14555;DHT22;7364;50.870;4.722;2022-07-04T05:59:53;16.90;99.90
14555;DHT22;7364;50.870;4.722;2022-07-04T06:02:20;16.90;99.90
14555;DHT22;7364;50.870;4.722;2022-07-04T06:04:47;17.00;99.90
14555;DHT22;7364;50.870;4.722;2022-07-04T06:07:14;17.00;99.90
14555;DHT22;7364;50.870;4.722;2022-07-04T06:09:43;17.00;99.90
14555;DHT22;7364;50.870;4.722;2022-07-04T06:12:10;17.00;99.90
14555;DHT22;7364;50.870;4.722;2022-07-04T06:14:38;16.90;99.90
14555;DHT22;7364;50.870;4.722;2022-07-04T06:17:05;17.20;99.90
14555;DHT22;7364;50.870;4.722;2022-07-04T06:19:32;17.40;99.90
14555;DHT22;7364;50.870;4.722;2022-07-04T06:21:59;17.60;99.90
14555;DHT22;7364;50.870;4.722;2022-07-04T06:24:26;17.60;99.90
14555;DHT22;7364;50.870;4.722;2022-07-04T06:26:55;17.60;99.90
14555;DHT22;7364;50.870;4.722;2022-07-04T06:29:22;17.70;99.90
14555;DHT22;7364;50.870;4.722;2022-07-04T06:31:49;17.90;99.90
14555;DHT22;7364;50.870;4.722;2022-07-04T06:34:16;18.30;99.90
14555;DHT22;7364;50.870;4.722;2022-07-04T06:37:01;18.50;99.90
14555;DHT22;7364;50.870;4.722;2022-07-04T06:39:28;18.60;99.90
14555;DHT22;7364;50.870;4.722;2022-07-04T06:41:56;18.70;99.90
14555;DHT22;7364;50.870;4.722;2022-07-04T06:44:23;19.00;99.90
14555;DHT22;7364;50.870;4.722;2022-07-04T06:46:51;18.80;99.90
14555;DHT22;7364;50.870;4.722;2022-07-04T06:49:19;18.80;99.90
14555;DHT22;7364;50.870;4.722;2022-07-04T06:51:46;18.80;99.90
14555;DHT22;7364;50.870;4.722;2022-07-04T06:54:13;19.10;99.90
14555;DHT22;7364;50.870;4.722;2022-07-04T06:56:41;19.50;99.90
14555;DHT22;7364;50.870;4.722;2022-07-04T06:59:10;19.40;99.90
14555;DHT22;7364;50.870;4.722;2022-07-04T07:01:37;19.10;99.90
14555;DHT22;7364;50.870;4.722;2022-07-04T07:04:07;19.30;99.90
14555;DHT22;7364;50.870;4.722;2022-07-04T07:06:34;19.50;99.90
14555;DHT22;7364;50.870;4.722;2022-07-04T07:09:04;19.40;99.90
14555;DHT22;7364;50.870;4.722;2022-07-04T07:11:31;19.40;99.90
14555;DHT22;7364;50.870;4.722;2022-07-04T07:13:58;19.30;99.90
14555;DHT22;7364;50.870;4.722;2022-07-04T07:16:27;19.40;99.90
14555;DHT22;7364;50.870;4.722;2022-07-04T07:18:54;19.30;99.90
14555;DHT22;7364;50.870;4.722;2022-07-04T07:21:21;19.10;99.90
14555;DHT22;7364;50.870;4.722;2022-07-04T07:23:49;19.10;99.90
14555;DHT22;7364;50.870;4.722;2022-07-04T07:26:16;19.30;99.90
14555;DHT22;7364;50.870;4.722;2022-07-04T07:28:43;19.20;99.90
14555;DHT22;7364;50.870;4.722;2022-07-04T07:31:11;19.00;99.90
14555;DHT22;7364;50.870;4.722;2022-07-04T07:33:39;19.00;99.90
14555;DHT22;7364;50.870;4.722;2022-07-04T07:36:06;19.20;99.90
14555;DHT22;7364;50.870;4.722;2022-07-04T07:38:34;19.20;99.90
14555;DHT22;7364;50.870;4.722;2022-07-04T07:41:01;19.30;99.90
14555;DHT22;7364;50.870;4.722;2022-07-04T07:43:28;19.30;99.90
14555;DHT22;7364;50.870;4.722;2022-07-04T07:45:56;19.60;99.90
14555;DHT22;7364;50.870;4.722;2022-07-04T07:48:23;20.10;99.90
14555;DHT22;7364;50.870;4.722;2022-07-04T07:50:52;20.50;99.90
14555;DHT22;7364;50.870;4.722;2022-07-04T07:53:19;20.30;99.90
14555;DHT22;7364;50.870;4.722;2022-07-04T07:55:46;20.10;99.90
14555;DHT22;7364;50.870;4.722;2022-07-04T07:58:13;20.50;99.90
14555;DHT22;7364;50.870;4.722;2022-07-04T08:00:41;20.60;99.90
14555;DHT22;7364;50.870;4.722;2022-07-04T08:03:08;20.20;99.90
14555;DHT22;7364;50.870;4.722;2022-07-04T08:05:53;20.30;99.90
14555;DHT22;7364;50.870;4.722;2022-07-04T08:08:20;20.20;99.90
14555;DHT22;7364;50.870;4.722;2022-07-04T08:10:49;20.40;99.90
14555;DHT22;7364;50.870;4.722;2022-07-04T08:13:16;20.60;99.90
14555;DHT22;7364;50.870;4.722;2022-07-04T08:15:43;20.70;99.90
14555;DHT22;7364;50.870;4.722;2022-07-04T08:18:11;20.40;99.90
14555;DHT22;7364;50.870;4.722;2022-07-04T08:20:38;20.10;99.90
14555;DHT22;7364;50.870;4.722;2022-07-04T08:23:07;20.00;99.90
14555;DHT22;7364;50.870;4.722;2022-07-04T08:25:34;20.00;99.90
14555;DHT22;7364;50.870;4.722;2022-07-04T08:28:04;20.10;99.90
14555;DHT22;7364;50.870;4.722;2022-07-04T08:30:31;20.30;99.90
14555;DHT22;7364;50.870;4.722;2022-07-04T08:32:59;20.70;99.90
14555;DHT22;7364;50.870;4.722;2022-07-04T08:35:27;20.90;99.90
14555;DHT22;7364;50.870;4.722;2022-07-04T08:37:54;21.00;99.90
14555;DHT22;7364;50.870;4.722;2022-07-04T08:40:24;21.00;99.90
14555;DHT22;7364;50.870;4.722;2022-07-04T08:42:52;21.20;99.90
14555;DHT22;7364;50.870;4.722;2022-07-04T08:45:25;21.40;99.90
14555;DHT22;7364;50.870;4.722;2022-07-04T08:47:58;21.40;99.90
14555;DHT22;7364;50.870;4.722;2022-07-04T08:50:30;21.40;99.90
14555;DHT22;7364;50.870;4.722;2022-07-04T08:52:59;21.50;99.30
14555;DHT22;7364;50.870;4.722;2022-07-04T08:55:29;21.10;98.80
14555;DHT22;7364;50.870;4.722;2022-07-04T08:58:14;20.80;98.70
14555;DHT22;7364;50.870;4.722;2022-07-04T09:00:58;20.70;99.40
14555;DHT22;7364;50.870;4.722;2022-07-04T09:03:26;20.70;99.60
14555;DHT22;7364;50.870;4.722;2022-07-04T09:05:55;21.00;98.70
14555;DHT22;7364;50.870;4.722;2022-07-04T09:08:23;21.40;98.60
14555;DHT22;7364;50.870;4.722;2022-07-04T09:10:52;21.60;98.10
14555;DHT22;7364;50.870;4.722;2022-07-04T09:13:20;21.70;98.00
14555;DHT22;7364;50.870;4.722;2022-07-04T09:15:48;22.00;98.00
14555;DHT22;7364;50.870;4.722;2022-07-04T09:18:20;22.00;98.10
14555;DHT22;7364;50.870;4.722;2022-07-04T09:20:48;21.70;97.70
14555;DHT22;7364;50.870;4.722;2022-07-04T09:23:18;21.70;99.90
14555;DHT22;7364;50.870;4.722;2022-07-04T09:25:46;21.90;98.40
14555;DHT22;7364;50.870;4.722;2022-07-04T09:28:27;22.30;97.20
14555;DHT22;7364;50.870;4.722;2022-07-04T09:30:54;21.70;95.60
14555;DHT22;7364;50.870;4.722;2022-07-04T09:33:44;21.30;95.90
14555;DHT22;7364;50.870;4.722;2022-07-04T09:36:13;21.60;96.00
14555;DHT22;7364;50.870;4.722;2022-07-04T09:38:40;21.70;99.30
14555;DHT22;7364;50.870;4.722;2022-07-04T09:41:07;21.60;95.60
14555;DHT22;7364;50.870;4.722;2022-07-04T09:44:04;21.70;96.50
14555;DHT22;7364;50.870;4.722;2022-07-04T09:46:32;21.60;96.40
14555;DHT22;7364;50.870;4.722;2022-07-04T09:49:00;21.50;96.20
14555;DHT22;7364;50.870;4.722;2022-07-04T09:51:39;21.60;98.10
14555;DHT22;7364;50.870;4.722;2022-07-04T09:54:18;21.90;96.50
14555;DHT22;7364;50.870;4.722;2022-07-04T09:56:52;21.90;93.80
14555;DHT22;7364;50.870;4.722;2022-07-04T09:59:22;21.80;94.40
14555;DHT22;7364;50.870;4.722;2022-07-04T10:01:50;21.90;94.70
14555;DHT22;7364;50.870;4.722;2022-07-04T10:04:17;21.70;94.40
14555;DHT22;7364;50.870;4.722;2022-07-04T10:06:47;21.70;95.10
14555;DHT22;7364;50.870;4.722;2022-07-04T10:09:16;22.10;93.80
14555;DHT22;7364;50.870;4.722;2022-07-04T10:11:45;22.60;93.80
14555;DHT22;7364;50.870;4.722;2022-07-04T10:14:13;22.70;92.60
14555;DHT22;7364;50.870;4.722;2022-07-04T10:16:43;22.80;92.20
14555;DHT22;7364;50.870;4.722;2022-07-04T10:19:10;22.40;93.10
14555;DHT22;7364;50.870;4.722;2022-07-04T10:21:38;22.20;91.60
14555;DHT22;7364;50.870;4.722;2022-07-04T10:24:06;22.20;92.40
14555;DHT22;7364;50.870;4.722;2022-07-04T10:26:34;22.40;94.90
14555;DHT22;7364;50.870;4.722;2022-07-04T10:29:01;22.60;91.70
14555;DHT22;7364;50.870;4.722;2022-07-04T10:31:30;23.20;92.50
14555;DHT22;7364;50.870;4.722;2022-07-04T10:34:00;23.00;93.40
14555;DHT22;7364;50.870;4.722;2022-07-04T10:36:29;23.00;91.80
14555;DHT22;7364;50.870;4.722;2022-07-04T10:38:58;23.50;91.80
14555;DHT22;7364;50.870;4.722;2022-07-04T10:41:27;23.70;91.50
14555;DHT22;7364;50.870;4.722;2022-07-04T10:43:59;24.10;89.20
14555;DHT22;7364;50.870;4.722;2022-07-04T10:46:47;23.70;87.50
14555;DHT22;7364;50.870;4.722;2022-07-04T10:49:27;23.10;89.00
14555;DHT22;7364;50.870;4.722;2022-07-04T10:51:57;23.40;87.90
14555;DHT22;7364;50.870;4.722;2022-07-04T10:54:35;23.70;88.90
14555;DHT22;7364;50.870;4.722;2022-07-04T10:57:13;23.60;86.60
14555;DHT22;7364;50.870;4.722;2022-07-04T10:59:42;23.90;87.00
14555;DHT22;7364;50.870;4.722;2022-07-04T11:02:29;24.00;86.80
14555;DHT22;7364;50.870;4.722;2022-07-04T11:05:00;24.50;87.50
14555;DHT22;7364;50.870;4.722;2022-07-04T11:07:58;25.00;84.80
14555;DHT22;7364;50.870;4.722;2022-07-04T11:10:27;26.10;84.60
14555;DHT22;7364;50.870;4.722;2022-07-04T11:13:16;25.90;79.30
14555;DHT22;7364;50.870;4.722;2022-07-04T11:16:03;25.40;81.20
14555;DHT22;7364;50.870;4.722;2022-07-04T11:18:40;25.70;79.10
14555;DHT22;7364;50.870;4.722;2022-07-04T11:21:22;27.50;76.60
14555;DHT22;7364;50.870;4.722;2022-07-04T11:23:54;27.30;78.80
14555;DHT22;7364;50.870;4.722;2022-07-04T11:26:23;26.90;78.70
14555;DHT22;7364;50.870;4.722;2022-07-04T11:28:50;26.10;78.50
14555;DHT22;7364;50.870;4.722;2022-07-04T11:31:17;25.90;82.00
14555;DHT22;7364;50.870;4.722;2022-07-04T11:33:46;26.20;80.10
14555;DHT22;7364;50.870;4.722;2022-07-04T11:36:15;26.50;78.60
14555;DHT22;7364;50.870;4.722;2022-07-04T11:38:52;26.40;74.90
14555;DHT22;7364;50.870;4.722;2022-07-04T11:41:22;26.70;75.10
14555;DHT22;7364;50.870;4.722;2022-07-04T11:44:09;27.10;76.90
14555;DHT22;7364;50.870;4.722;2022-07-04T11:47:13;26.60;72.30
14555;DHT22;7364;50.870;4.722;2022-07-04T11:49:44;25.80;76.00
14555;DHT22;7364;50.870;4.722;2022-07-04T11:52:12;25.10;79.90
14555;DHT22;7364;50.870;4.722;2022-07-04T11:54:41;25.00;77.70
14555;DHT22;7364;50.870;4.722;2022-07-04T11:57:14;25.30;81.00
14555;DHT22;7364;50.870;4.722;2022-07-04T11:59:43;25.60;73.20
14555;DHT22;7364;50.870;4.722;2022-07-04T12:02:18;25.60;77.60
14555;DHT22;7364;50.870;4.722;2022-07-04T12:04:45;26.20;74.60
14555;DHT22;7364;50.870;4.722;2022-07-04T12:07:14;26.50;74.10
14555;DHT22;7364;50.870;4.722;2022-07-04T12:09:44;27.80;75.40
14555;DHT22;7364;50.870;4.722;2022-07-04T12:12:12;29.90;69.00
14555;DHT22;7364;50.870;4.722;2022-07-04T12:14:40;29.10;67.90
14555;DHT22;7364;50.870;4.722;2022-07-04T12:17:22;27.40;74.60
14555;DHT22;7364;50.870;4.722;2022-07-04T12:19:57;26.80;72.80
14555;DHT22;7364;50.870;4.722;2022-07-04T12:22:30;26.30;72.60
14555;DHT22;7364;50.870;4.722;2022-07-04T12:24:59;26.40;75.20
14555;DHT22;7364;50.870;4.722;2022-07-04T12:27:27;26.70;74.00
14555;DHT22;7364;50.870;4.722;2022-07-04T12:29:56;26.40;76.70
14555;DHT22;7364;50.870;4.722;2022-07-04T12:32:24;26.80;74.30
14555;DHT22;7364;50.870;4.722;2022-07-04T12:35:10;27.60;71.10
14555;DHT22;7364;50.870;4.722;2022-07-04T12:37:37;27.90;72.00
14555;DHT22;7364;50.870;4.722;2022-07-04T12:40:08;28.90;71.00
14555;DHT22;7364;50.870;4.722;2022-07-04T12:42:35;30.30;67.30
14555;DHT22;7364;50.870;4.722;2022-07-04T12:45:05;32.50;62.90
14555;DHT22;7364;50.870;4.722;2022-07-04T12:47:33;31.90;59.30
14555;DHT22;7364;50.870;4.722;2022-07-04T12:50:00;31.50;60.00
14555;DHT22;7364;50.870;4.722;2022-07-04T12:52:27;30.80;61.90
14555;DHT22;7364;50.870;4.722;2022-07-04T12:55:14;30.30;63.00
14555;DHT22;7364;50.870;4.722;2022-07-04T12:57:41;30.40;64.10
14555;DHT22;7364;50.870;4.722;2022-07-04T13:00:09;29.50;62.60
14555;DHT22;7364;50.870;4.722;2022-07-04T13:02:38;28.60;66.40
14555;DHT22;7364;50.870;4.722;2022-07-04T13:05:06;28.40;66.10
14555;DHT22;7364;50.870;4.722;2022-07-04T13:07:33;27.80;66.70
14555;DHT22;7364;50.870;4.722;2022-07-04T13:10:00;27.70;68.50
14555;DHT22;7364;50.870;4.722;2022-07-04T13:12:28;27.90;69.00
14555;DHT22;7364;50.870;4.722;2022-07-04T13:14:57;28.10;67.20
14555;DHT22;7364;50.870;4.722;2022-07-04T13:17:26;30.00;64.40
14555;DHT22;7364;50.870;4.722;2022-07-04T13:19:53;33.50;59.40
14555;DHT22;7364;50.870;4.722;2022-07-04T13:22:22;34.20;54.50
14555;DHT22;7364;50.870;4.722;2022-07-04T13:24:50;31.20;56.70
14555;DHT22;7364;50.870;4.722;2022-07-04T13:27:17;29.70;58.80
14555;DHT22;7364;50.870;4.722;2022-07-04T13:29:47;29.10;61.40
14555;DHT22;7364;50.870;4.722;2022-07-04T13:32:14;31.20;62.80
14555;DHT22;7364;50.870;4.722;2022-07-04T13:34:41;33.80;56.80
14555;DHT22;7364;50.870;4.722;2022-07-04T13:37:09;35.00;53.80
14555;DHT22;7364;50.870;4.722;2022-07-04T13:39:36;35.80;53.10
14555;DHT22;7364;50.870;4.722;2022-07-04T13:42:03;37.00;52.20
14555;DHT22;7364;50.870;4.722;2022-07-04T13:44:30;39.60;48.10
14555;DHT22;7364;50.870;4.722;2022-07-04T13:46:59;41.40;45.30
14555;DHT22;7364;50.870;4.722;2022-07-04T13:49:27;41.60;43.80
14555;DHT22;7364;50.870;4.722;2022-07-04T13:51:54;42.20;41.80
14555;DHT22;7364;50.870;4.722;2022-07-04T13:54:23;42.90;41.00
14555;DHT22;7364;50.870;4.722;2022-07-04T13:56:50;40.70;40.80
14555;DHT22;7364;50.870;4.722;2022-07-04T13:59:17;38.50;41.30
14555;DHT22;7364;50.870;4.722;2022-07-04T14:01:44;35.10;45.40
14555;DHT22;7364;50.870;4.722;2022-07-04T14:04:14;33.70;47.30
14555;DHT22;7364;50.870;4.722;2022-07-04T14:06:41;32.40;49.70
14555;DHT22;7364;50.870;4.722;2022-07-04T14:09:08;30.00;52.80
14555;DHT22;7364;50.870;4.722;2022-07-04T14:11:35;29.10;55.20
14555;DHT22;7364;50.870;4.722;2022-07-04T14:14:02;29.90;56.30
14555;DHT22;7364;50.870;4.722;2022-07-04T14:16:30;32.30;53.50
14555;DHT22;7364;50.870;4.722;2022-07-04T14:18:57;34.30;49.80
14555;DHT22;7364;50.870;4.722;2022-07-04T14:21:26;33.70;50.10
14555;DHT22;7364;50.870;4.722;2022-07-04T14:23:53;33.00;50.00
14555;DHT22;7364;50.870;4.722;2022-07-04T14:26:20;33.90;49.00
14555;DHT22;7364;50.870;4.722;2022-07-04T14:28:50;36.10;48.20
14555;DHT22;7364;50.870;4.722;2022-07-04T14:31:18;38.30;44.40
14555;DHT22;7364;50.870;4.722;2022-07-04T14:33:45;37.40;44.30
14555;DHT22;7364;50.870;4.722;2022-07-04T14:36:13;38.60;43.00
14555;DHT22;7364;50.870;4.722;2022-07-04T14:38:42;36.90;44.20
14555;DHT22;7364;50.870;4.722;2022-07-04T14:41:09;36.70;44.70
14555;DHT22;7364;50.870;4.722;2022-07-04T14:43:37;37.90;43.40
14555;DHT22;7364;50.870;4.722;2022-07-04T14:46:05;39.20;41.70
14555;DHT22;7364;50.870;4.722;2022-07-04T14:48:33;40.80;39.40
14555;DHT22;7364;50.870;4.722;2022-07-04T14:51:00;41.10;40.00
14555;DHT22;7364;50.870;4.722;2022-07-04T14:53:27;39.30;38.90
14555;DHT22;7364;50.870;4.722;2022-07-04T14:55:56;38.60;40.70
14555;DHT22;7364;50.870;4.722;2022-07-04T14:58:23;37.80;40.60
14555;DHT22;7364;50.870;4.722;2022-07-04T15:00:50;37.70;41.00
14555;DHT22;7364;50.870;4.722;2022-07-04T15:03:17;36.00;41.90
14555;DHT22;7364;50.870;4.722;2022-07-04T15:05:44;34.50;44.60
14555;DHT22;7364;50.870;4.722;2022-07-04T15:08:11;36.10;44.00
14555;DHT22;7364;50.870;4.722;2022-07-04T15:10:39;35.30;44.00
14555;DHT22;7364;50.870;4.722;2022-07-04T15:13:07;34.00;45.10
14555;DHT22;7364;50.870;4.722;2022-07-04T15:15:35;33.90;46.20
14555;DHT22;7364;50.870;4.722;2022-07-04T15:18:02;35.00;45.10
14555;DHT22;7364;50.870;4.722;2022-07-04T15:20:29;36.70;44.20
14555;DHT22;7364;50.870;4.722;2022-07-04T15:23:14;38.00;41.60
14555;DHT22;7364;50.870;4.722;2022-07-04T15:25:59;40.20;39.50
14555;DHT22;7364;50.870;4.722;2022-07-04T15:28:27;40.30;39.10
14555;DHT22;7364;50.870;4.722;2022-07-04T15:30:54;39.40;39.20
14555;DHT22;7364;50.870;4.722;2022-07-04T15:33:22;37.60;40.70
14555;DHT22;7364;50.870;4.722;2022-07-04T15:35:53;34.00;43.90
14555;DHT22;7364;50.870;4.722;2022-07-04T15:38:22;33.40;46.70
14555;DHT22;7364;50.870;4.722;2022-07-04T15:40:49;32.40;46.50
14555;DHT22;7364;50.870;4.722;2022-07-04T15:43:16;31.20;48.90
14555;DHT22;7364;50.870;4.722;2022-07-04T15:45:45;31.80;48.80
14555;DHT22;7364;50.870;4.722;2022-07-04T15:48:12;31.00;49.90
14555;DHT22;7364;50.870;4.722;2022-07-04T15:50:39;30.10;51.70
14555;DHT22;7364;50.870;4.722;2022-07-04T15:53:06;30.00;51.60
14555;DHT22;7364;50.870;4.722;2022-07-04T15:55:34;29.90;52.30
14555;DHT22;7364;50.870;4.722;2022-07-04T15:58:02;30.20;51.80